Terminal Aerodrome Forecast
Issued by NWS

Home | Current Version | Previous Version | Text Only | Print | Product List | Glossary On
Versions: 1 2 3 4 5 6 7 8 9 10 11 12 13 14 15 16
000
FTUS41 KBGM 192323 AAB
TAFELM
TAF AMD
KELM 192323Z 1923/2018 31007KT P6SM FEW090
     FM200800 32006KT P6SM BKN050
     FM201100 33005KT P6SM BKN030
     FM201300 34006KT P6SM SCT040=

USA.gov is the U.S. government's official web portal to all federal, state and local government web resources and services.